sensor_id;sensor_type;location;lat;lon;timestamp;pressure;altitude;pressure_sealevel;temperature;humidity
16595;BME280;8410;52.532;13.336;2023-04-23T00:00:47;100248.56;;;18.73;50.51
16595;BME280;8410;52.532;13.336;2023-04-23T00:03:17;100241.41;;;18.82;50.47
16595;BME280;8410;52.532;13.336;2023-04-23T00:05:45;100246.72;;;18.79;50.66
16595;BME280;8410;52.532;13.336;2023-04-23T00:08:17;100249.06;;;18.88;50.83
16595;BME280;8410;52.532;13.336;2023-04-23T00:10:45;100246.81;;;18.76;50.98
16595;BME280;8410;52.532;13.336;2023-04-23T00:13:14;100239.13;;;18.40;52.33
16595;BME280;8410;52.532;13.336;2023-04-23T00:15:43;100241.13;;;18.61;51.47
16595;BME280;8410;52.532;13.336;2023-04-23T00:18:10;100241.75;;;18.69;51.61
16595;BME280;8410;52.532;13.336;2023-04-23T00:20:38;100231.50;;;18.63;51.62
16595;BME280;8410;52.532;13.336;2023-04-23T00:23:05;100229.69;;;18.03;52.64
16595;BME280;8410;52.532;13.336;2023-04-23T00:25:33;100231.66;;;18.57;51.69
16595;BME280;8410;52.532;13.336;2023-04-23T00:28:00;100224.66;;;17.97;52.71
16595;BME280;8410;52.532;13.336;2023-04-23T00:30:29;100220.56;;;18.19;52.98
16595;BME280;8410;52.532;13.336;2023-04-23T00:32:56;100225.84;;;18.18;52.20
16595;BME280;8410;52.532;13.336;2023-04-23T00:35:24;100226.59;;;18.52;52.36
16595;BME280;8410;52.532;13.336;2023-04-23T00:37:52;100232.13;;;18.42;51.97
16595;BME280;8410;52.532;13.336;2023-04-23T00:40:19;100214.41;;;18.53;51.89
16595;BME280;8410;52.532;13.336;2023-04-23T00:42:47;100222.19;;;18.55;52.23
16595;BME280;8410;52.532;13.336;2023-04-23T00:45:17;100221.06;;;18.34;52.00
16595;BME280;8410;52.532;13.336;2023-04-23T00:47:47;100216.47;;;18.42;51.60
16595;BME280;8410;52.532;13.336;2023-04-23T00:50:15;100208.50;;;18.46;51.82
16595;BME280;8410;52.532;13.336;2023-04-23T00:52:43;100210.38;;;18.41;51.75
16595;BME280;8410;52.532;13.336;2023-04-23T00:55:10;100212.25;;;18.38;52.63
16595;BME280;8410;52.532;13.336;2023-04-23T00:57:38;100210.91;;;17.90;53.93
16595;BME280;8410;52.532;13.336;2023-04-23T01:00:07;100202.50;;;17.80;54.00
16595;BME280;8410;52.532;13.336;2023-04-23T01:02:35;100207.22;;;18.32;53.69
16595;BME280;8410;52.532;13.336;2023-04-23T01:05:06;100212.56;;;18.25;53.76
16595;BME280;8410;52.532;13.336;2023-04-23T01:07:36;100213.16;;;18.04;53.64
16595;BME280;8410;52.532;13.336;2023-04-23T01:10:04;100205.28;;;18.38;52.80
16595;BME280;8410;52.532;13.336;2023-04-23T01:12:32;100215.16;;;18.57;52.42
16595;BME280;8410;52.532;13.336;2023-04-23T01:15:01;100208.25;;;18.24;52.94
16595;BME280;8410;52.532;13.336;2023-04-23T01:17:28;100214.75;;;17.75;56.20
16595;BME280;8410;52.532;13.336;2023-04-23T01:19:57;100204.47;;;18.05;54.71
16595;BME280;8410;52.532;13.336;2023-04-23T01:22:26;100213.88;;;18.09;53.96
16595;BME280;8410;52.532;13.336;2023-04-23T01:24:53;100204.56;;;18.00;54.37
16595;BME280;8410;52.532;13.336;2023-04-23T01:27:21;100198.88;;;18.19;55.02
16595;BME280;8410;52.532;13.336;2023-04-23T01:29:50;100208.25;;;18.24;54.89
16595;BME280;8410;52.532;13.336;2023-04-23T01:32:18;100202.63;;;18.40;54.34
16595;BME280;8410;52.532;13.336;2023-04-23T01:34:46;100200.44;;;18.24;54.87
16595;BME280;8410;52.532;13.336;2023-04-23T01:37:15;100206.44;;;16.86;59.29
16595;BME280;8410;52.532;13.336;2023-04-23T01:39:44;100210.53;;;18.04;56.49
16595;BME280;8410;52.532;13.336;2023-04-23T01:42:11;100209.78;;;17.66;58.18
16595;BME280;8410;52.532;13.336;2023-04-23T01:44:39;100205.44;;;18.01;59.46
16595;BME280;8410;52.532;13.336;2023-04-23T01:47:07;100207.25;;;18.30;59.87
16595;BME280;8410;52.532;13.336;2023-04-23T01:49:35;100203.63;;;18.03;60.55
16595;BME280;8410;52.532;13.336;2023-04-23T01:52:03;100213.44;;;16.84;65.28
16595;BME280;8410;52.532;13.336;2023-04-23T01:54:30;100212.75;;;16.74;66.87
16595;BME280;8410;52.532;13.336;2023-04-23T01:56:59;100201.94;;;17.68;65.51
16595;BME280;8410;52.532;13.336;2023-04-23T01:59:26;100201.88;;;17.69;66.18
16595;BME280;8410;52.532;13.336;2023-04-23T02:01:54;100203.72;;;16.50;70.09
16595;BME280;8410;52.532;13.336;2023-04-23T02:04:21;100205.94;;;15.79;77.11
16595;BME280;8410;52.532;13.336;2023-04-23T02:06:50;100196.94;;;16.87;73.76
16595;BME280;8410;52.532;13.336;2023-04-23T02:09:17;100197.75;;;16.47;77.12
16595;BME280;8410;52.532;13.336;2023-04-23T02:11:45;100194.00;;;17.01;77.10
16595;BME280;8410;52.532;13.336;2023-04-23T02:14:14;100205.09;;;16.25;79.98
16595;BME280;8410;52.532;13.336;2023-04-23T02:16:42;100196.06;;;16.43;79.75
16595;BME280;8410;52.532;13.336;2023-04-23T02:19:10;100194.63;;;16.70;79.00
16595;BME280;8410;52.532;13.336;2023-04-23T02:21:41;100201.59;;;16.68;79.98
16595;BME280;8410;52.532;13.336;2023-04-23T02:24:08;100205.56;;;16.44;81.17
16595;BME280;8410;52.532;13.336;2023-04-23T02:26:36;100195.09;;;16.48;79.77
16595;BME280;8410;52.532;13.336;2023-04-23T02:29:03;100190.13;;;16.80;79.26
16595;BME280;8410;52.532;13.336;2023-04-23T02:31:32;100185.66;;;16.86;79.16
16595;BME280;8410;52.532;13.336;2023-04-23T02:34:00;100194.78;;;16.64;80.01
16595;BME280;8410;52.532;13.336;2023-04-23T02:36:27;100189.44;;;16.70;80.25
16595;BME280;8410;52.532;13.336;2023-04-23T02:38:56;100194.00;;;16.60;81.27
16595;BME280;8410;52.532;13.336;2023-04-23T02:41:23;100196.25;;;16.75;81.04
16595;BME280;8410;52.532;13.336;2023-04-23T02:43:51;100195.91;;;16.50;83.60
16595;BME280;8410;52.532;13.336;2023-04-23T02:46:18;100199.81;;;16.29;85.08
16595;BME280;8410;52.532;13.336;2023-04-23T02:48:47;100192.47;;;16.50;84.07
16595;BME280;8410;52.532;13.336;2023-04-23T02:51:15;100192.41;;;16.53;83.27
16595;BME280;8410;52.532;13.336;2023-04-23T02:53:42;100188.78;;;16.17;85.56
16595;BME280;8410;52.532;13.336;2023-04-23T02:56:10;100193.81;;;16.26;85.41
16595;BME280;8410;52.532;13.336;2023-04-23T02:58:37;100190.66;;;16.53;83.80
16595;BME280;8410;52.532;13.336;2023-04-23T03:01:05;100186.84;;;16.70;83.19
16595;BME280;8410;52.532;13.336;2023-04-23T03:03:32;100182.69;;;16.63;83.85
16595;BME280;8410;52.532;13.336;2023-04-23T03:06:02;100181.63;;;16.71;82.53
16595;BME280;8410;52.532;13.336;2023-04-23T03:08:29;100182.50;;;16.70;82.78
16595;BME280;8410;52.532;13.336;2023-04-23T03:10:57;100180.81;;;16.68;83.06
16595;BME280;8410;52.532;13.336;2023-04-23T03:13:25;100175.47;;;16.77;82.46
16595;BME280;8410;52.532;13.336;2023-04-23T03:15:53;100176.31;;;16.78;83.04
16595;BME280;8410;52.532;13.336;2023-04-23T03:18:21;100175.47;;;16.77;82.61
16595;BME280;8410;52.532;13.336;2023-04-23T03:20:48;100177.47;;;17.03;81.77
16595;BME280;8410;52.532;13.336;2023-04-23T03:23:17;100179.78;;;17.15;80.59
16595;BME280;8410;52.532;13.336;2023-04-23T03:25:44;100174.63;;;17.14;79.77
16595;BME280;8410;52.532;13.336;2023-04-23T03:28:12;100168.84;;;17.01;80.66
16595;BME280;8410;52.532;13.336;2023-04-23T03:30:39;100167.00;;;17.06;80.85
16595;BME280;8410;52.532;13.336;2023-04-23T03:33:07;100166.59;;;17.23;79.99
16595;BME280;8410;52.532;13.336;2023-04-23T03:35:35;100169.03;;;17.29;78.80
16595;BME280;8410;52.532;13.336;2023-04-23T03:38:02;100165.75;;;17.23;79.17
16595;BME280;8410;52.532;13.336;2023-04-23T03:40:31;100167.19;;;17.34;79.44
16595;BME280;8410;52.532;13.336;2023-04-23T03:42:59;100167.56;;;17.19;79.48
16595;BME280;8410;52.532;13.336;2023-04-23T03:45:26;100165.00;;;17.17;80.28
16595;BME280;8410;52.532;13.336;2023-04-23T03:47:53;100164.16;;;17.17;79.98
16595;BME280;8410;52.532;13.336;2023-04-23T03:50:21;100165.03;;;17.16;80.55
16595;BME280;8410;52.532;13.336;2023-04-23T03:52:51;100162.72;;;17.04;81.09
16595;BME280;8410;52.532;13.336;2023-04-23T03:55:18;100162.38;;;17.19;79.51
16595;BME280;8410;52.532;13.336;2023-04-23T03:57:47;100165.72;;;17.24;80.19
16595;BME280;8410;52.532;13.336;2023-04-23T04:00:15;100164.91;;;16.83;83.36
16595;BME280;8410;52.532;13.336;2023-04-23T04:02:43;100163.91;;;16.90;82.08
16595;BME280;8410;52.532;13.336;2023-04-23T04:05:11;100171.97;;;16.78;82.37
16595;BME280;8410;52.532;13.336;2023-04-23T04:07:39;100168.00;;;17.01;81.56
16595;BME280;8410;52.532;13.336;2023-04-23T04:10:07;100157.53;;;17.04;81.04
16595;BME280;8410;52.532;13.336;2023-04-23T04:12:34;100154.19;;;16.98;82.21
16595;BME280;8410;52.532;13.336;2023-04-23T04:15:04;100150.16;;;17.21;80.39
16595;BME280;8410;52.532;13.336;2023-04-23T04:17:32;100155.44;;;17.18;80.13
16595;BME280;8410;52.532;13.336;2023-04-23T04:19:59;100162.66;;;17.07;80.15
16595;BME280;8410;52.532;13.336;2023-04-23T04:22:28;100159.31;;;17.02;82.12
16595;BME280;8410;52.532;13.336;2023-04-23T04:24:55;100160.53;;;17.24;81.13
16595;BME280;8410;52.532;13.336;2023-04-23T04:27:23;100163.84;;;17.29;81.47
16595;BME280;8410;52.532;13.336;2023-04-23T04:29:51;100163.75;;;16.58;82.51
16595;BME280;8410;52.532;13.336;2023-04-23T04:32:19;100161.03;;;17.03;80.90
16595;BME280;8410;52.532;13.336;2023-04-23T04:34:48;100162.16;;;16.49;83.31
16595;BME280;8410;52.532;13.336;2023-04-23T04:37:16;100152.00;;;17.16;81.45
16595;BME280;8410;52.532;13.336;2023-04-23T04:39:43;100155.25;;;17.27;79.59
16595;BME280;8410;52.532;13.336;2023-04-23T04:42:11;100158.25;;;17.45;79.04
16595;BME280;8410;52.532;13.336;2023-04-23T04:44:38;100170.25;;;16.77;83.74
16595;BME280;8410;52.532;13.336;2023-04-23T04:47:07;100167.06;;;17.40;80.58
16595;BME280;8410;52.532;13.336;2023-04-23T04:49:36;100166.72;;;17.53;80.56
16595;BME280;8410;52.532;13.336;2023-04-23T04:52:03;100167.19;;;17.34;82.21
16595;BME280;8410;52.532;13.336;2023-04-23T04:54:31;100171.06;;;17.54;80.77
16595;BME280;8410;52.532;13.336;2023-04-23T04:56:59;100182.78;;;17.34;83.17
16595;BME280;8410;52.532;13.336;2023-04-23T04:59:27;100177.78;;;17.61;81.45
16595;BME280;8410;52.532;13.336;2023-04-23T05:01:55;100179.25;;;17.38;82.08
16595;BME280;8410;52.532;13.336;2023-04-23T05:04:22;100170.53;;;17.39;81.67
16595;BME280;8410;52.532;13.336;2023-04-23T05:06:51;100183.78;;;16.91;83.61
16595;BME280;8410;52.532;13.336;2023-04-23T05:09:19;100178.94;;;17.15;84.22
16595;BME280;8410;52.532;13.336;2023-04-23T05:11:47;100172.81;;;17.16;83.09
16595;BME280;8410;52.532;13.336;2023-04-23T05:14:14;100176.44;;;17.46;81.53
16595;BME280;8410;52.532;13.336;2023-04-23T05:16:42;100174.06;;;17.37;82.08
16595;BME280;8410;52.532;13.336;2023-04-23T05:19:09;100178.91;;;17.51;80.60
16595;BME280;8410;52.532;13.336;2023-04-23T05:21:37;100175.91;;;17.68;82.38
16595;BME280;8410;52.532;13.336;2023-04-23T05:24:06;100175.97;;;17.99;80.50
16595;BME280;8410;52.532;13.336;2023-04-23T05:26:33;100178.88;;;18.19;79.66
16595;BME280;8410;52.532;13.336;2023-04-23T05:29:00;100180.38;;;18.28;79.43
16595;BME280;8410;52.532;13.336;2023-04-23T05:31:29;100178.69;;;18.25;78.38
16595;BME280;8410;52.532;13.336;2023-04-23T05:33:56;100175.41;;;17.88;81.04
16595;BME280;8410;52.532;13.336;2023-04-23T05:36:24;100187.81;;;18.11;79.83
16595;BME280;8410;52.532;13.336;2023-04-23T05:38:52;100175.09;;;18.00;78.14
16595;BME280;8410;52.532;13.336;2023-04-23T05:41:21;100184.59;;;18.01;80.10
16595;BME280;8410;52.532;13.336;2023-04-23T05:43:49;100190.91;;;16.85;82.65
16595;BME280;8410;52.532;13.336;2023-04-23T05:46:17;100187.31;;;17.62;82.08
16595;BME280;8410;52.532;13.336;2023-04-23T05:48:45;100194.53;;;17.51;80.83
16595;BME280;8410;52.532;13.336;2023-04-23T05:51:12;100200.13;;;16.58;84.42
16595;BME280;8410;52.532;13.336;2023-04-23T05:53:39;100195.34;;;17.53;82.21
16595;BME280;8410;52.532;13.336;2023-04-23T05:56:07;100198.47;;;16.95;83.33
16595;BME280;8410;52.532;13.336;2023-04-23T05:58:36;100187.16;;;17.68;82.16
16595;BME280;8410;52.532;13.336;2023-04-23T06:01:04;100193.06;;;17.40;84.52
16595;BME280;8410;52.532;13.336;2023-04-23T06:03:31;100196.47;;;18.11;80.81
16595;BME280;8410;52.532;13.336;2023-04-23T06:05:59;100194.28;;;18.28;79.90
16595;BME280;8410;52.532;13.336;2023-04-23T06:08:27;100199.38;;;18.32;81.22
16595;BME280;8410;52.532;13.336;2023-04-23T06:10:54;100197.63;;;18.32;79.28
16595;BME280;8410;52.532;13.336;2023-04-23T06:13:22;100203.56;;;18.06;79.81
16595;BME280;8410;52.532;13.336;2023-04-23T06:15:51;100196.66;;;17.71;82.98
16595;BME280;8410;52.532;13.336;2023-04-23T06:18:18;100195.34;;;18.20;81.20
16595;BME280;8410;52.532;13.336;2023-04-23T06:20:46;100194.59;;;18.16;80.44
16595;BME280;8410;52.532;13.336;2023-04-23T06:23:14;100191.66;;;18.28;81.00
16595;BME280;8410;52.532;13.336;2023-04-23T06:25:41;100194.28;;;18.28;80.75
16595;BME280;8410;52.532;13.336;2023-04-23T06:28:09;100201.28;;;18.26;80.97
16595;BME280;8410;52.532;13.336;2023-04-23T06:30:36;100196.38;;;18.14;81.82
16595;BME280;8410;52.532;13.336;2023-04-23T06:33:05;100212.09;;;17.77;83.12
16595;BME280;8410;52.532;13.336;2023-04-23T06:35:32;100198.91;;;18.17;81.34
16595;BME280;8410;52.532;13.336;2023-04-23T06:38:00;100204.69;;;18.28;81.83
16595;BME280;8410;52.532;13.336;2023-04-23T06:40:27;100203.03;;;17.59;82.74
16595;BME280;8410;52.532;13.336;2023-04-23T06:42:55;100208.19;;;18.27;81.90
16595;BME280;8410;52.532;13.336;2023-04-23T06:45:22;100206.13;;;18.07;80.85
16595;BME280;8410;52.532;13.336;2023-04-23T06:47:50;100209.81;;;18.32;81.30
16595;BME280;8410;52.532;13.336;2023-04-23T06:50:19;100211.28;;;18.09;81.92
16595;BME280;8410;52.532;13.336;2023-04-23T06:52:46;100211.38;;;18.37;80.46
16595;BME280;8410;52.532;13.336;2023-04-23T06:55:14;100213.28;;;18.30;80.68
16595;BME280;8410;52.532;13.336;2023-04-23T06:57:41;100208.44;;;18.18;81.72
16595;BME280;8410;52.532;13.336;2023-04-23T07:00:10;100209.97;;;18.25;81.75
16595;BME280;8410;52.532;13.336;2023-04-23T07:02:37;100215.53;;;18.13;82.23
16595;BME280;8410;52.532;13.336;2023-04-23T07:05:05;100209.91;;;17.96;83.29
16595;BME280;8410;52.532;13.336;2023-04-23T07:07:34;100214.47;;;17.88;83.82
16595;BME280;8410;52.532;13.336;2023-04-23T07:10:04;100219.63;;;17.53;84.37
16595;BME280;8410;52.532;13.336;2023-04-23T07:12:32;100225.97;;;17.77;84.78
16595;BME280;8410;52.532;13.336;2023-04-23T07:14:59;100221.53;;;17.11;86.75
16595;BME280;8410;52.532;13.336;2023-04-23T07:17:27;100222.81;;;17.30;87.30
16595;BME280;8410;52.532;13.336;2023-04-23T07:19:54;100223.78;;;17.60;86.94
16595;BME280;8410;52.532;13.336;2023-04-23T07:22:22;100222.38;;;17.47;86.56
16595;BME280;8410;52.532;13.336;2023-04-23T07:24:52;100222.38;;;17.47;87.54
16595;BME280;8410;52.532;13.336;2023-04-23T07:27:19;100225.72;;;16.76;89.40
16595;BME280;8410;52.532;13.336;2023-04-23T07:29:46;100216.91;;;17.58;87.69
16595;BME280;8410;52.532;13.336;2023-04-23T07:32:14;100223.06;;;17.18;87.96
16595;BME280;8410;52.532;13.336;2023-04-23T07:34:42;100224.97;;;17.49;89.85
16595;BME280;8410;52.532;13.336;2023-04-23T07:37:09;100226.47;;;17.59;87.13
16595;BME280;8410;52.532;13.336;2023-04-23T07:39:37;100225.09;;;17.78;86.58
16595;BME280;8410;52.532;13.336;2023-04-23T07:42:09;100228.28;;;17.90;86.69
16595;BME280;8410;52.532;13.336;2023-04-23T07:44:36;100231.00;;;17.87;87.53
16595;BME280;8410;52.532;13.336;2023-04-23T07:47:04;100233.75;;;18.13;86.68
16595;BME280;8410;52.532;13.336;2023-04-23T07:49:31;100235.25;;;17.89;85.81
16595;BME280;8410;52.532;13.336;2023-04-23T07:51:58;100237.75;;;17.94;86.35
16595;BME280;8410;52.532;13.336;2023-04-23T07:54:26;100236.44;;;18.10;85.80
16595;BME280;8410;52.532;13.336;2023-04-23T07:56:53;100242.13;;;17.92;87.37
16595;BME280;8410;52.532;13.336;2023-04-23T07:59:23;100241.75;;;18.07;86.64
16595;BME280;8410;52.532;13.336;2023-04-23T08:01:51;100234.16;;;17.98;85.15
16595;BME280;8410;52.532;13.336;2023-04-23T08:04:18;100239.44;;;17.96;85.34
16595;BME280;8410;52.532;13.336;2023-04-23T08:06:46;100238.22;;;17.74;85.98
16595;BME280;8410;52.532;13.336;2023-04-23T08:09:13;100237.44;;;17.70;86.27
16595;BME280;8410;52.532;13.336;2023-04-23T08:11:41;100242.34;;;17.82;85.63
16595;BME280;8410;52.532;13.336;2023-04-23T08:14:08;100243.78;;;18.28;83.29
16595;BME280;8410;52.532;13.336;2023-04-23T08:16:37;100245.91;;;17.78;86.24
16595;BME280;8410;52.532;13.336;2023-04-23T08:19:05;100240.28;;;17.97;85.40
16595;BME280;8410;52.532;13.336;2023-04-23T08:21:32;100241.19;;;18.28;84.62
16595;BME280;8410;52.532;13.336;2023-04-23T08:24:00;100231.66;;;18.57;82.95
16595;BME280;8410;52.532;13.336;2023-04-23T08:26:28;100231.25;;;18.41;83.00
16595;BME280;8410;52.532;13.336;2023-04-23T08:28:58;100236.97;;;18.54;83.08
16595;BME280;8410;52.532;13.336;2023-04-23T08:31:26;100231.06;;;18.79;83.11
16595;BME280;8410;52.532;13.336;2023-04-23T08:33:56;100236.03;;;18.88;81.69
16595;BME280;8410;52.532;13.336;2023-04-23T08:36:23;100242.44;;;18.45;82.19
16595;BME280;8410;52.532;13.336;2023-04-23T08:38:51;100240.53;;;18.83;81.79
16595;BME280;8410;52.532;13.336;2023-04-23T08:41:21;100245.50;;;18.90;81.08
16595;BME280;8410;52.532;13.336;2023-04-23T08:43:51;100235.41;;;19.36;79.21
16595;BME280;8410;52.532;13.336;2023-04-23T08:46:22;100236.03;;;19.16;79.88
16595;BME280;8410;52.532;13.336;2023-04-23T08:48:51;100237.22;;;19.60;77.71
16595;BME280;8410;52.532;13.336;2023-04-23T08:51:22;100237.09;;;19.37;78.92
16595;BME280;8410;52.532;13.336;2023-04-23T08:53:55;100241.50;;;19.35;78.39
16595;BME280;8410;52.532;13.336;2023-04-23T08:56:25;100243.19;;;19.09;79.47
16595;BME280;8410;52.532;13.336;2023-04-23T08:58:53;100252.94;;;19.03;79.59
16595;BME280;8410;52.532;13.336;2023-04-23T09:01:22;100250.84;;;18.87;80.43
16595;BME280;8410;52.532;13.336;2023-04-23T09:03:51;100251.25;;;18.10;83.44
16595;BME280;8410;52.532;13.336;2023-04-23T09:06:21;100255.47;;;18.12;84.34
16595;BME280;8410;52.532;13.336;2023-04-23T09:08:48;100253.44;;;18.55;81.81
16595;BME280;8410;52.532;13.336;2023-04-23T09:11:16;100256.28;;;17.81;85.38
16595;BME280;8410;52.532;13.336;2023-04-23T09:13:43;100254.75;;;18.40;82.78
16595;BME280;8410;52.532;13.336;2023-04-23T09:16:11;100263.53;;;18.36;82.88
16595;BME280;8410;52.532;13.336;2023-04-23T09:18:39;100259.38;;;18.61;82.32
16595;BME280;8410;52.532;13.336;2023-04-23T09:21:06;100261.66;;;18.10;84.90
16595;BME280;8410;52.532;13.336;2023-04-23T09:23:37;100269.53;;;18.06;84.12
16595;BME280;8410;52.532;13.336;2023-04-23T09:26:07;100279.69;;;17.46;87.04
16595;BME280;8410;52.532;13.336;2023-04-23T09:28:34;100276.31;;;17.78;86.22
16595;BME280;8410;52.532;13.336;2023-04-23T09:31:04;100296.50;;;16.90;88.20
16595;BME280;8410;52.532;13.336;2023-04-23T09:33:34;100307.22;;;15.76;88.53
16595;BME280;8410;52.532;13.336;2023-04-23T09:36:04;100300.88;;;15.35;91.91
16595;BME280;8410;52.532;13.336;2023-04-23T09:38:32;100304.81;;;15.00;91.19
16595;BME280;8410;52.532;13.336;2023-04-23T09:41:19;100310.84;;;14.99;94.47
16595;BME280;8410;52.532;13.336;2023-04-23T09:43:46;100304.59;;;15.15;93.00
16595;BME280;8410;52.532;13.336;2023-04-23T09:46:14;100304.47;;;15.25;93.66
16595;BME280;8410;52.532;13.336;2023-04-23T09:48:42;100312.78;;;15.48;91.83
16595;BME280;8410;52.532;13.336;2023-04-23T09:51:12;100307.34;;;15.66;90.32
16595;BME280;8410;52.532;13.336;2023-04-23T09:53:40;100306.13;;;15.91;90.87
16595;BME280;8410;52.532;13.336;2023-04-23T09:56:08;100306.91;;;15.94;90.35
16595;BME280;8410;52.532;13.336;2023-04-23T09:58:37;100313.06;;;15.30;92.59
16595;BME280;8410;52.532;13.336;2023-04-23T10:01:06;100317.53;;;15.17;94.01
16595;BME280;8410;52.532;13.336;2023-04-23T10:03:34;100308.31;;;15.59;92.19
16595;BME280;8410;52.532;13.336;2023-04-23T10:06:04;100311.31;;;15.32;93.06
16595;BME280;8410;52.532;13.336;2023-04-23T10:08:42;100321.44;;;15.47;92.51
16595;BME280;8410;52.532;13.336;2023-04-23T10:11:10;100326.34;;;15.69;91.22
16595;BME280;8410;52.532;13.336;2023-04-23T10:13:47;100330.50;;;15.18;91.88
16595;BME280;8410;52.532;13.336;2023-04-23T10:16:15;100332.22;;;15.81;91.28
16595;BME280;8410;52.532;13.336;2023-04-23T10:18:51;100326.88;;;15.91;88.88
16595;BME280;8410;52.532;13.336;2023-04-23T10:21:23;100331.13;;;15.95;86.57
16595;BME280;8410;52.532;13.336;2023-04-23T10:23:52;100336.88;;;15.56;87.92
16595;BME280;8410;52.532;13.336;2023-04-23T10:26:21;100323.81;;;16.65;84.52
16595;BME280;8410;52.532;13.336;2023-04-23T10:28:53;100327.31;;;17.09;82.96
16595;BME280;8410;52.532;13.336;2023-04-23T10:31:21;100330.50;;;17.60;80.60
16595;BME280;8410;52.532;13.336;2023-04-23T10:33:49;100330.63;;;17.17;80.88
16595;BME280;8410;52.532;13.336;2023-04-23T10:36:25;100327.56;;;16.00;87.52
16595;BME280;8410;52.532;13.336;2023-04-23T10:38:53;100306.22;;;17.61;81.03
16595;BME280;8410;52.532;13.336;2023-04-23T10:41:28;100311.75;;;18.19;78.54
16595;BME280;8410;52.532;13.336;2023-04-23T10:44:01;100311.59;;;18.58;77.61
16595;BME280;8410;52.532;13.336;2023-04-23T10:46:29;100304.09;;;18.13;76.46
16595;BME280;8410;52.532;13.336;2023-04-23T10:49:10;100301.22;;;18.24;76.43
16595;BME280;8410;52.532;13.336;2023-04-23T10:51:40;100300.59;;;18.14;76.96
16595;BME280;8410;52.532;13.336;2023-04-23T10:54:29;100303.91;;;18.52;76.23
16595;BME280;8410;52.532;13.336;2023-04-23T10:56:59;100306.38;;;18.25;76.39
16595;BME280;8410;52.532;13.336;2023-04-23T10:59:30;100308.88;;;18.94;78.01
16595;BME280;8410;52.532;13.336;2023-04-23T11:02:05;100313.69;;;19.08;75.46
16595;BME280;8410;52.532;13.336;2023-04-23T11:04:35;100315.56;;;18.71;75.75
16595;BME280;8410;52.532;13.336;2023-04-23T11:07:04;100322.91;;;19.20;74.62
16595;BME280;8410;52.532;13.336;2023-04-23T11:09:37;100326.88;;;19.03;73.77
16595;BME280;8410;52.532;13.336;2023-04-23T11:12:07;100313.31;;;19.48;72.79
16595;BME280;8410;52.532;13.336;2023-04-23T11:14:41;100308.94;;;19.78;71.51
16595;BME280;8410;52.532;13.336;2023-04-23T11:17:11;100312.50;;;19.76;70.83
16595;BME280;8410;52.532;13.336;2023-04-23T11:19:39;100318.50;;;18.59;74.81
16595;BME280;8410;52.532;13.336;2023-04-23T11:22:12;100319.16;;;19.28;72.41
16595;BME280;8410;52.532;13.336;2023-04-23T11:24:41;100310.16;;;19.67;72.06
16595;BME280;8410;52.532;13.336;2023-04-23T11:27:11;100306.38;;;20.02;71.50
16595;BME280;8410;52.532;13.336;2023-04-23T11:29:41;100308.03;;;19.79;72.34
16595;BME280;8410;52.532;13.336;2023-04-23T11:32:11;100314.13;;;19.22;73.16
16595;BME280;8410;52.532;13.336;2023-04-23T11:34:40;100321.88;;;19.53;71.23
16595;BME280;8410;52.532;13.336;2023-04-23T11:37:09;100329.69;;;19.25;73.58
16595;BME280;8410;52.532;13.336;2023-04-23T11:39:37;100332.09;;;19.33;73.47
16595;BME280;8410;52.532;13.336;2023-04-23T11:42:08;100328.22;;;19.16;74.19
16595;BME280;8410;52.532;13.336;2023-04-23T11:44:37;100322.16;;;19.72;72.14
16595;BME280;8410;52.532;13.336;2023-04-23T11:47:08;100312.88;;;19.90;71.58
16595;BME280;8410;52.532;13.336;2023-04-23T11:49:36;100311.31;;;20.36;70.91
16595;BME280;8410;52.532;13.336;2023-04-23T11:52:05;100310.41;;;20.64;68.87
16595;BME280;8410;52.532;13.336;2023-04-23T11:54:32;100302.53;;;20.14;69.24
16595;BME280;8410;52.532;13.336;2023-04-23T11:57:01;100298.94;;;20.41;70.04
16595;BME280;8410;52.532;13.336;2023-04-23T11:59:29;100303.00;;;20.75;68.05
16595;BME280;8410;52.532;13.336;2023-04-23T12:01:58;100300.03;;;20.84;66.49
16595;BME280;8410;52.532;13.336;2023-04-23T12:04:28;100312.91;;;19.34;70.09
16595;BME280;8410;52.532;13.336;2023-04-23T12:06:57;100305.09;;;19.89;68.49
16595;BME280;8410;52.532;13.336;2023-04-23T12:09:26;100309.75;;;19.51;69.21
16595;BME280;8410;52.532;13.336;2023-04-23T12:11:55;100313.44;;;18.87;70.45
16595;BME280;8410;52.532;13.336;2023-04-23T12:14:27;100318.94;;;19.36;69.34
16595;BME280;8410;52.532;13.336;2023-04-23T12:16:56;100305.31;;;19.54;69.79
16595;BME280;8410;52.532;13.336;2023-04-23T12:19:27;100322.47;;;19.61;69.27
16595;BME280;8410;52.532;13.336;2023-04-23T12:21:58;100316.94;;;19.44;69.42
16595;BME280;8410;52.532;13.336;2023-04-23T12:24:27;100315.47;;;19.64;69.02
16595;BME280;8410;52.532;13.336;2023-04-23T12:26:57;100314.00;;;20.60;67.32
16595;BME280;8410;52.532;13.336;2023-04-23T12:29:28;100309.81;;;20.79;66.29
16595;BME280;8410;52.532;13.336;2023-04-23T12:31:58;100320.22;;;20.05;65.39
16595;BME280;8410;52.532;13.336;2023-04-23T12:34:27;100315.16;;;20.01;66.91
16595;BME280;8410;52.532;13.336;2023-04-23T12:36:55;100331.31;;;19.57;66.00
16595;BME280;8410;52.532;13.336;2023-04-23T12:39:27;100333.47;;;18.85;67.82
16595;BME280;8410;52.532;13.336;2023-04-23T12:41:56;100323.34;;;19.90;67.15
16595;BME280;8410;52.532;13.336;2023-04-23T12:44:26;100312.25;;;20.35;65.26
16595;BME280;8410;52.532;13.336;2023-04-23T12:46:54;100305.59;;;20.50;64.44
16595;BME280;8410;52.532;13.336;2023-04-23T12:49:23;100302.22;;;19.96;66.99
16595;BME280;8410;52.532;13.336;2023-04-23T12:51:53;100308.66;;;20.38;64.54
16595;BME280;8410;52.532;13.336;2023-04-23T12:54:24;100302.81;;;20.56;62.74
16595;BME280;8410;52.532;13.336;2023-04-23T12:56:51;100307.16;;;19.79;63.31